Latest Weather Observations for Birdsville

IDQ60801

Issued at 12:05 pm EST Tuesday 2 September 2014 (issued every 30 minutes, with the page automatically refreshed every 10 minutes)

About weather observations | Map of weather stations | Latest weather observations for QLD | Other Formats
Station Details ID: 038026 Name: BIRDSVILLE AIRPORT Lat: -25.90 Lon: 139.35 Height: 46.6 m
Data from the previous 72 hours. | See also: Recent months at Birdsville
Date/Time
EST
Temp
°C
App
Temp
°C
Dew
Point
Rel
Hum
%
Delta-T
°C
Wind Press
QNH
hPa
Press
MSL
hPa
Rain
since 9 am
mm
Dir
 
Spd
km/h
Gust
km/h
Spd
kts
Gust
kts
02/12:00pm 18.1 10.6 -1.7 26 8.3 S 28 35 15 19 1024.3 1024.2 0.0
02/11:30am 18.3 11.1 0.4 30 7.8 SSE 28 37 15 20 1024.6 - 0.0
02/11:00am 16.9 9.3 0.5 33 7.1 S 30 37 16 20 1025.0 - 0.0
02/10:30am 16.3 8.2 1.2 36 6.6 S 33 41 18 22 1025.1 - 0.0
02/10:00am 16.1 7.6 1.0 36 6.6 S 35 44 19 24 1025.0 - 0.0
02/09:30am 15.6 7.8 1.7 39 6.1 S 32 41 17 22 1025.2 - 0.0
02/09:00am 14.9 7.7 3.1 45 5.3 S 30 41 16 22 1024.7 1024.6 0.0
02/08:30am 14.4 7.8 4.1 50 4.7 S 28 35 15 19 1024.5 - 0.0
02/08:00am 13.6 6.7 4.5 54 4.2 S 30 37 16 20 1024.0 - 0.0
02/07:30am 13.2 6.4 5.1 58 3.8 S 30 39 16 21 1023.4 - 0.0
02/07:00am 13.1 6.4 5.8 61 3.4 S 30 39 16 21 1022.8 - 0.0
02/06:30am 13.5 7.7 6.4 62 3.4 S 26 33 14 18 1022.4 - 0.0
02/06:00am 14.2 8.9 6.8 61 3.6 S 24 35 13 19 1022.0 1021.9 0.0
02/05:30am 14.6 8.6 6.9 60 3.8 S 28 35 15 19 1021.6 - 0.0
02/05:00am 15.2 8.4 7.0 58 4.0 S 32 43 17 23 1021.0 - 0.0
02/04:30am 15.7 8.9 6.7 55 4.4 S 32 41 17 22 1020.5 - 0.0
02/04:00am 15.9 10.1 6.3 53 4.7 S 26 35 14 19 1020.4 - 0.0
02/03:30am 16.4 10.0 6.8 53 4.7 S 30 37 16 20 1020.1 - 0.0
02/03:00am 16.8 10.7 6.6 51 5.0 S 28 35 15 19 1020.1 1020.0 0.0
02/02:30am 17.1 11.0 6.6 50 5.2 S 28 35 15 19 1020.0 - 0.0
02/02:00am 17.5 10.4 6.4 48 5.5 S 33 43 18 23 1019.8 - 0.0
02/01:30am 17.8 10.9 6.3 47 5.7 S 32 43 17 23 1019.9 - 0.0
02/01:00am 18.4 10.4 5.9 44 6.1 S 37 46 20 25 1019.7 - 0.0
02/12:30am 18.6 10.2 5.5 42 6.4 SSW 39 52 21 28 1019.7 - 0.0
02/12:15am 19.1 10.2 5.2 40 6.8 SSW 41 59 22 32 1019.5 - 0.0
02/12:00am 19.4 10.7 4.0 36 7.3 SSW 39 52 21 28 1019.4 1019.3 0.0
 
Date/Time
EST
Temp
°C
App
Temp
°C
Dew
Point
Rel
Hum
%
Delta-T
°C
Wind Press
QNH
hPa
Press
MSL
hPa
Rain
since 9 am
mm
Dir
 
Spd
km/h
Gust
km/h
Spd
kts
Gust
kts
01/11:30pm 20.0 11.1 2.8 32 8.0 SSW 39 52 21 28 1018.9 - 0.0
01/11:00pm 20.5 13.4 3.3 32 8.2 SSW 30 33 16 18 1018.7 - 0.0
01/10:30pm 21.3 13.7 4.0 32 8.4 SSW 33 44 18 24 1018.3 - 0.0
01/10:00pm 21.9 13.8 5.3 34 8.3 S 37 50 20 27 1018.0 - 0.0
01/09:33pm 22.7 14.2 5.2 32 8.7 S 39 59 21 32 1017.3 - 0.0
01/09:30pm 22.8 14.3 5.3 32 8.8 S 39 50 21 27 1017.4 - 0.0
01/09:00pm 23.5 15.0 1.2 23 10.4 SSW 35 43 19 23 1016.5 1016.5 0.0
01/08:30pm 23.8 15.8 -6.2 13 12.2 SSW 28 33 15 18 1015.8 - 0.0
01/08:00pm 25.0 16.2 -6.3 12 12.8 SSW 32 39 17 21 1015.0 - 0.0
01/07:30pm 26.1 17.3 -6.6 11 13.5 SW 32 37 17 20 1014.2 - 0.0
01/07:08pm 27.6 19.5 -6.7 10 14.3 SW 28 37 15 20 1013.6 - 0.0
01/07:00pm 27.3 22.7 -8.3 9 14.4 W 9 11 5 6 1013.1 - 0.0
01/06:30pm 29.3 24.3 -8.3 8 15.5 W 11 13 6 7 1012.8 - 0.0
01/06:00pm 31.3 24.9 -6.8 8 16.4 W 19 22 10 12 1012.7 1012.6 0.0
01/05:30pm 32.0 25.1 -6.3 8 16.7 WNW 22 32 12 17 1012.6 - 0.0
01/05:00pm 32.5 25.6 -6.0 8 16.9 WNW 22 30 12 16 1012.0 - 0.0
01/04:30pm 32.5 25.1 -7.7 7 17.2 WNW 24 35 13 19 1012.2 - 0.0
01/04:00pm 32.8 26.1 -7.5 7 17.3 W 20 28 11 15 1012.1 - 0.0
01/03:30pm 32.1 25.2 -6.3 8 16.8 WNW 22 32 12 17 1012.3 - 0.0
01/03:00pm 32.2 25.7 -6.2 8 16.8 NW 20 28 11 15 1012.7 1012.6 0.0
01/02:30pm 32.2 24.9 -6.2 8 16.8 WNW 24 32 13 17 1013.0 - 0.0
01/02:00pm 32.1 24.8 -6.3 8 16.8 WNW 24 35 13 19 1013.7 - 0.0
01/01:30pm 30.9 23.5 -7.1 8 16.2 NW 24 33 13 18 1014.1 - 0.0
01/01:00pm 30.8 23.2 -5.7 9 15.9 NW 26 39 14 21 1014.5 - 0.0
01/12:30pm 30.8 23.2 -5.7 9 15.9 NW 26 39 14 21 1015.0 - 0.0
01/12:00pm 29.7 21.6 -6.5 9 15.4 NW 28 39 15 21 1015.5 1015.5 0.0
01/11:30am 30.1 21.8 -4.8 10 15.4 NNW 30 43 16 23 1015.6 - 0.0
01/11:00am 28.5 20.1 -6.0 10 14.7 N 30 37 16 20 1016.1 - 0.0
01/10:30am 26.9 18.7 -7.3 10 14.0 N 28 33 15 18 1016.3 - 0.0
01/10:00am 25.7 18.0 -6.9 11 13.3 N 26 32 14 17 1016.4 - 0.0
01/09:30am 23.5 16.5 -7.5 12 12.2 N 22 28 12 15 1016.2 - 0.0
01/09:00am 20.7 14.2 -7.7 14 10.8 N 19 22 10 12 1016.2 1016.2 0.0
01/08:30am 17.6 11.8 -8.5 16 9.5 NNE 15 17 8 9 1015.9 - 0.0
01/08:00am 15.1 10.5 -8.3 19 8.3 NW 9 13 5 7 1015.6 - 0.0
01/07:30am 10.7 5.8 -12.6 18 7.0 NW 9 11 5 6 1015.4 - 0.0
01/07:00am 10.0 4.8 -11.3 21 6.6 NW 11 11 6 6 1015.3 - 0.0
01/06:30am 10.0 5.2 -10.7 22 6.5 NW 9 11 5 6 1015.0 - 0.0
01/06:00am 9.8 4.1 -12.7 19 6.7 NW 13 15 7 8 1014.8 1014.8 0.0
01/05:30am 10.3 5.0 -12.3 19 6.8 NW 11 13 6 7 1014.8 - 0.0
01/05:00am 10.3 5.0 -12.3 19 6.8 NW 11 13 6 7 1014.4 - 0.0
01/04:30am 11.0 6.1 -11.7 19 7.0 NW 9 9 5 5 1014.5 - 0.0
01/04:00am 11.4 6.5 -12.7 17 7.3 NW 9 9 5 5 1014.6 - 0.0
01/03:30am 12.1 7.3 -10.8 19 7.4 NW 9 11 5 6 1014.9 - 0.0
01/03:00am 12.5 7.7 -10.5 19 7.5 NW 9 9 5 5 1015.0 1015.0 0.0
01/02:30am 12.8 8.0 -10.9 18 7.7 NW 9 11 5 6 1014.9 - 0.0
01/02:00am 12.0 7.1 -12.3 17 7.5 NW 9 11 5 6 1015.4 - 0.0
01/01:30am 12.5 7.3 -10.5 19 7.5 NW 11 11 6 6 1015.6 - 0.0
01/01:00am 13.9 9.7 -10.7 17 8.1 NW 6 7 3 4 1015.8 - 0.0
01/12:30am 13.9 9.5 -10.7 17 8.1 NW 7 7 4 4 1015.8 - 0.0
01/12:00am 15.8 11.5 -8.4 18 8.6 NW 7 9 4 5 1015.9 1015.9 0.0
 
Date/Time
EST
Temp
°C
App
Temp
°C
Dew
Point
Rel
Hum
%
Delta-T
°C
Wind Press
QNH
hPa
Press
MSL
hPa
Rain
since 9 am
mm
Dir
 
Spd
km/h
Gust
km/h
Spd
kts
Gust
kts
31/11:30pm 14.8 10.0 -10.0 17 8.4 NW 9 9 5 5 1015.9 - 0.0
31/11:00pm 14.8 10.3 -12.4 14 8.8 NW 7 9 4 5 1016.0 - 0.0
31/10:30pm 16.8 14.1 -6.3 20 8.7 CALM 0 0 0 0 1016.1 - 0.0
31/10:00pm 17.0 14.6 -3.1 25 8.1 CALM 0 0 0 0 1016.1 - 0.0
31/09:30pm 19.0 14.8 -10.0 13 10.4 W 6 7 3 4 1016.1 - 0.0
31/09:00pm 20.2 16.0 -8.1 14 10.6 W 7 9 4 5 1016.0 1016.1 0.0
31/08:30pm 20.4 16.1 -8.9 13 10.9 W 7 9 4 5 1015.9 - 0.0
31/08:00pm 21.7 17.5 -7.9 13 11.4 W 7 9 4 5 1015.8 - 0.0
31/07:30pm 22.8 18.6 -8.1 12 12.0 W 7 9 4 5 1015.5 - 0.0
31/07:00pm 23.6 19.0 -7.4 12 12.3 W 9 11 5 6 1015.2 - 0.0
31/06:30pm 25.5 21.3 -8.3 10 13.4 W 7 9 4 5 1015.1 - 0.0
31/06:00pm 27.3 23.4 -6.9 10 14.1 WNW 6 9 3 5 1014.9 1015.0 0.0
31/05:30pm 27.7 23.1 -8.0 9 14.5 WNW 9 15 5 8 1014.8 - 0.0
31/05:00pm 28.2 23.0 -6.3 10 14.6 WNW 13 20 7 11 1014.8 - 0.0
31/04:30pm 28.1 23.7 -6.3 10 14.5 WNW 9 17 5 9 1014.8 - 0.0
31/04:00pm 27.9 22.3 -6.5 10 14.4 NNW 15 24 8 13 1015.0 - 0.0
31/03:30pm 28.4 24.0 -6.1 10 14.6 WNW 9 13 5 7 1015.0 - 0.0
31/03:00pm 27.8 22.9 -6.6 10 14.4 W 11 22 6 12 1015.4 1015.5 0.0
31/02:30pm 27.7 23.2 -6.6 10 14.3 WNW 9 17 5 9 1015.8 - 0.0
31/02:00pm 26.9 21.7 -6.0 11 13.8 NNW 13 20 7 11 1016.4 - 0.0
31/01:30pm 26.8 22.5 -4.9 12 13.5 NNE 9 17 5 9 1017.2 - 0.0
31/01:00pm 26.4 22.4 -5.3 12 13.4 SE 7 13 4 7 1017.7 - 0.0
31/12:30pm 26.0 21.2 -5.6 12 13.2 NE 11 17 6 9 1018.2 - 0.0
31/12:00pm 25.0 20.3 -5.3 13 12.6 N 11 17 6 9 1018.6 1018.6 0.0
31/11:30am 25.4 19.6 -5.0 13 12.8 NE 17 24 9 13 1019.0 - 0.0
31/11:00am 24.1 17.3 -5.0 14 12.1 NE 22 26 12 14 1019.6 - 0.0
31/10:30am 22.5 15.1 -3.7 17 11.0 NE 26 32 14 17 1019.5 - 0.0
31/10:00am 20.5 13.4 -4.6 18 10.2 NE 24 30 13 16 1019.7 - 0.0
31/09:30am 19.1 12.9 -5.0 19 9.6 NE 19 24 10 13 1019.9 - 0.0
31/09:00am 16.3 11.9 -5.4 22 8.2 ENE 9 11 5 6 1020.0 1020.0 0.0
31/08:30am 13.8 10.0 -5.3 26 7.1 S 6 7 3 4 1019.7 - 0.0
31/08:00am 11.8 7.8 -5.2 30 6.2 S 7 7 4 4 1019.6 - 0.0
31/07:30am 9.7 5.6 -7.0 30 5.7 S 7 7 4 4 1019.2 - 0.0
31/07:00am 7.8 3.6 -8.2 31 5.1 S 7 7 4 4 1019.0 - 0.0
31/06:30am 8.5 6.3 -1.3 50 3.8 CALM 0 9 0 5 1018.7 - 0.0
31/06:00am 8.9 6.7 -1.8 47 4.1 CALM 0 0 0 0 1018.6 1018.6 0.0
31/05:30am 9.6 6.9 -6.3 32 5.5 CALM 0 0 0 0 1018.6 - 0.0
31/05:00am 9.9 7.1 -6.8 30 5.7 CALM 0 0 0 0 1018.5 - 0.0
31/04:30am 9.5 6.7 -7.2 30 5.6 CALM 0 4 0 2 1018.3 - 0.0
31/04:00am 11.7 8.3 -5.3 30 6.2 S 4 6 2 3 1018.3 - 0.0
31/03:30am 11.9 8.1 -6.0 28 6.4 S 6 7 3 4 1018.5 - 0.0
31/03:00am 13.4 10.9 -4.2 29 6.7 CALM 0 0 0 0 1018.5 1018.5 0.0
31/02:30am 12.9 9.2 -4.7 29 6.6 S 6 6 3 3 1018.7 - 0.0
31/02:00am 13.2 9.5 -4.4 29 6.6 S 6 7 3 4 1018.9 - 0.0
31/01:30am 13.9 10.0 -4.8 27 7.0 S 7 9 4 5 1019.1 - 0.0
31/01:00am 14.8 10.5 -4.5 26 7.4 S 9 11 5 6 1019.3 - 0.0
31/12:30am 15.9 12.1 -3.6 26 7.7 S 7 9 4 5 1019.4 - 0.0
31/12:00am 15.4 11.1 -4.5 25 7.6 S 9 11 5 6 1019.3 1019.3 0.0
 
Date/Time
EST
Temp
°C
App
Temp
°C
Dew
Point
Rel
Hum
%
Delta-T
°C
Wind Press
QNH
hPa
Press
MSL
hPa
Rain
since 9 am
mm
Dir
 
Spd
km/h
Gust
km/h
Spd
kts
Gust
kts
30/11:30pm 15.7 12.0 -4.2 25 7.7 S 6 7 3 4 1019.5 - 0.0
30/11:00pm 16.7 12.6 -2.9 26 7.9 S 9 11 5 6 1019.7 - 0.0
30/10:30pm 16.0 12.5 -3.0 27 7.6 S 6 7 3 4 1019.7 - 0.0
30/10:00pm 17.3 13.7 -3.4 24 8.3 S 6 7 3 4 1019.8 - 0.0
30/09:30pm 17.7 14.4 -4.3 22 8.7 S 4 6 2 3 1019.8 - 0.0
30/09:00pm 18.9 15.2 -2.7 23 8.9 S 7 9 4 5 1019.7 1019.7 0.0
30/08:30pm 19.8 15.3 -3.1 21 9.5 S 11 13 6 7 1019.4 - 0.0
30/08:00pm 21.0 16.2 -2.8 20 10.0 S 13 15 7 8 1019.0 - 0.0
30/07:30pm 21.6 17.1 -3.0 19 10.4 S 11 13 6 7 1018.8 - 0.0
30/07:00pm 22.9 18.9 -2.6 18 11.0 S 9 11 5 6 1018.4 - 0.0
30/06:30pm 24.5 20.1 -2.1 17 11.7 SSE 11 17 6 9 1017.9 - 0.0
30/06:00pm 25.4 20.5 -3.1 15 12.4 SSE 13 17 7 9 1017.7 1017.7 0.0
30/05:30pm 25.7 21.3 -2.8 15 12.5 SE 11 17 6 9 1017.6 - 0.0
30/05:00pm 26.0 21.6 -2.6 15 12.7 SE 11 17 6 9 1017.6 - 0.0
30/04:30pm 26.0 22.9 -2.6 15 12.7 ESE 4 11 2 6 1017.8 - 0.0
30/04:00pm 26.0 21.8 -3.5 14 12.8 ENE 9 15 5 8 1017.9 - 0.0
30/03:30pm 26.4 22.4 -2.3 15 12.8 S 9 13 5 7 1018.2 - 0.0
30/03:00pm 26.1 20.5 -2.5 15 12.7 SE 17 22 9 12 1018.8 1018.8 0.0
30/02:30pm 25.8 21.8 -1.9 16 12.4 E 9 17 5 9 1019.2 - 0.0
30/02:00pm 25.5 21.2 -1.3 17 12.1 SE 11 19 6 10 1019.7 - 0.0
30/01:30pm 24.7 20.5 -1.2 18 11.6 SSE 11 17 6 9 1020.2 - 0.0
30/01:00pm 25.1 21.8 -0.1 19 11.6 E 7 19 4 10 1020.8 - 0.0
30/12:30pm 24.4 20.3 0.0 20 11.2 SE 11 19 6 10 1021.4 - 0.0

Other Formats:

Comma delimited format used in spreadsheet applications
http://www.bom.gov.au/fwo/IDQ60801/IDQ60801.95482.axf

JavaScript Object Notation format (JSON) in row-major order
http://www.bom.gov.au/fwo/IDQ60801/IDQ60801.95482.json